sensor_id;sensor_type;location;lat;lon;timestamp;pressure;altitude;pressure_sealevel;temperature;humidity
24013;BME280;12220;50.194;18.948;2023-02-28T00:00:37;103149.39;;;2.14;54.01
24013;BME280;12220;50.194;18.948;2023-02-28T00:02:45;103154.80;;;2.14;54.03
24013;BME280;12220;50.194;18.948;2023-02-28T00:04:47;103153.02;;;2.13;54.01
24013;BME280;12220;50.194;18.948;2023-02-28T00:06:58;103153.02;;;2.13;54.06
24013;BME280;12220;50.194;18.948;2023-02-28T00:08:59;103146.68;;;2.12;54.05
24013;BME280;12220;50.194;18.948;2023-02-28T00:11:14;103145.80;;;2.13;54.05
24013;BME280;12220;50.194;18.948;2023-02-28T00:13:16;103153.02;;;2.13;54.01
24013;BME280;12220;50.194;18.948;2023-02-28T00:15:18;103153.91;;;2.15;54.00
24013;BME280;12220;50.194;18.948;2023-02-28T00:17:19;103154.80;;;2.14;54.01
24013;BME280;12220;50.194;18.948;2023-02-28T00:19:28;103158.42;;;2.14;54.06
24013;BME280;12220;50.194;18.948;2023-02-28T00:21:30;103160.20;;;2.14;54.12
24013;BME280;12220;50.194;18.948;2023-02-28T00:23:31;103152.10;;;2.14;54.12
24013;BME280;12220;50.194;18.948;2023-02-28T00:25:33;103156.60;;;2.15;54.09
24013;BME280;12220;50.194;18.948;2023-02-28T00:27:44;103152.10;;;2.14;54.10
24013;BME280;12220;50.194;18.948;2023-02-28T00:29:48;103157.49;;;2.14;54.12
24013;BME280;12220;50.194;18.948;2023-02-28T00:31:50;103152.98;;;2.11;53.96
24013;BME280;12220;50.194;18.948;2023-02-28T00:33:51;103158.38;;;2.09;54.00
24013;BME280;12220;50.194;18.948;2023-02-28T00:36:07;103162.89;;;2.09;54.08
24013;BME280;12220;50.194;18.948;2023-02-28T00:38:20;103156.59;;;2.08;54.06
24013;BME280;12220;50.194;18.948;2023-02-28T00:40:21;103161.07;;;2.08;54.11
24013;BME280;12220;50.194;18.948;2023-02-28T00:42:24;103160.18;;;2.07;54.17
24013;BME280;12220;50.194;18.948;2023-02-28T00:44:25;103173.70;;;2.09;54.18
24013;BME280;12220;50.194;18.948;2023-02-28T00:46:35;103172.81;;;2.08;54.19
24013;BME280;12220;50.194;18.948;2023-02-28T00:48:39;103166.49;;;2.08;54.21
24013;BME280;12220;50.194;18.948;2023-02-28T00:50:40;103171.00;;;2.07;54.16
24013;BME280;12220;50.194;18.948;2023-02-28T00:52:42;103175.52;;;2.05;54.13
24013;BME280;12220;50.194;18.948;2023-02-28T00:54:50;103161.07;;;2.05;54.19
24013;BME280;12220;50.194;18.948;2023-02-28T00:56:52;103164.66;;;2.04;54.21
24013;BME280;12220;50.194;18.948;2023-02-28T00:58:53;103164.66;;;2.04;54.26
24013;BME280;12220;50.194;18.948;2023-02-28T01:00:55;103170.07;;;2.04;54.33
24013;BME280;12220;50.194;18.948;2023-02-28T01:03:05;103162.88;;;2.03;54.32
24013;BME280;12220;50.194;18.948;2023-02-28T01:05:07;103168.27;;;2.01;54.35
24013;BME280;12220;50.194;18.948;2023-02-28T01:07:09;103175.46;;;2.01;54.38
24013;BME280;12220;50.194;18.948;2023-02-28T01:09:11;103179.97;;;2.00;54.42
24013;BME280;12220;50.194;18.948;2023-02-28T01:11:20;103166.47;;;2.00;54.49
24013;BME280;12220;50.194;18.948;2023-02-28T01:13:22;103171.86;;;1.99;54.39
24013;BME280;12220;50.194;18.948;2023-02-28T01:15:25;102862.27;;;0.18;54.34
24013;BME280;12220;50.194;18.948;2023-02-28T01:17:27;103172.74;;;1.98;54.49
24013;BME280;12220;50.194;18.948;2023-02-28T01:19:35;103160.16;;;1.98;54.50
24013;BME280;12220;50.194;18.948;2023-02-28T01:21:37;103155.64;;;1.97;54.52
24013;BME280;12220;50.194;18.948;2023-02-28T01:23:39;103155.64;;;1.97;54.52
24013;BME280;12220;50.194;18.948;2023-02-28T01:25:41;103155.64;;;1.96;54.49
24013;BME280;12220;50.194;18.948;2023-02-28T01:27:50;103162.82;;;1.95;54.54
24013;BME280;12220;50.194;18.948;2023-02-28T01:29:53;102897.51;;;0.47;54.50
24013;BME280;12220;50.194;18.948;2023-02-28T01:31:54;103150.22;;;1.93;54.63
24013;BME280;12220;50.194;18.948;2023-02-28T01:33:57;103145.70;;;1.91;54.73
24013;BME280;12220;50.194;18.948;2023-02-28T01:36:09;103150.21;;;1.91;54.76
24013;BME280;12220;50.194;18.948;2023-02-28T01:38:11;103150.21;;;1.91;54.78
24013;BME280;12220;50.194;18.948;2023-02-28T01:40:13;103149.28;;;1.89;54.74
24013;BME280;12220;50.194;18.948;2023-02-28T01:42:15;103149.28;;;1.87;54.77
24013;BME280;12220;50.194;18.948;2023-02-28T01:46:42;103146.55;;;1.83;54.78
24013;BME280;12220;50.194;18.948;2023-02-28T01:51:00;103150.13;;;1.77;54.83
24013;BME280;12220;50.194;18.948;2023-02-28T01:53:07;103145.61;;;1.74;54.84
24013;BME280;12220;50.194;18.948;2023-02-28T01:55:12;103139.30;;;1.71;54.87
24013;BME280;12220;50.194;18.948;2023-02-28T01:57:27;103151.88;;;1.69;54.85
24013;BME280;12220;50.194;18.948;2023-02-28T01:59:40;103140.16;;;1.65;54.86
24013;BME280;12220;50.194;18.948;2023-02-28T02:01:47;103149.15;;;1.63;54.84
24013;BME280;12220;50.194;18.948;2023-02-28T02:03:57;103144.63;;;1.60;54.92
24013;BME280;12220;50.194;18.948;2023-02-28T02:05:59;103147.30;;;1.57;54.95
24013;BME280;12220;50.194;18.948;2023-02-28T02:08:06;103141.89;;;1.54;54.98
24013;BME280;12220;50.194;18.948;2023-02-28T02:12:41;103153.55;;;1.48;55.04
24013;BME280;12220;50.194;18.948;2023-02-28T02:17:04;103140.02;;;1.44;55.07
24013;BME280;12220;50.194;18.948;2023-02-28T02:23:51;103143.58;;;1.36;55.04
24013;BME280;12220;50.194;18.948;2023-02-28T02:33:18;103138.11;;;1.24;55.10
24013;BME280;12220;50.194;18.948;2023-02-28T02:40:25;103137.16;;;1.19;55.24
24013;BME280;12220;50.194;18.948;2023-02-28T02:42:48;103138.97;;;1.18;55.23
24013;BME280;12220;50.194;18.948;2023-02-28T02:45:01;103145.24;;;1.16;55.29
24013;BME280;12220;50.194;18.948;2023-02-28T02:47:13;103139.83;;;1.13;55.34
24013;BME280;12220;50.194;18.948;2023-02-28T02:49:21;103141.62;;;1.11;55.31
24013;BME280;12220;50.194;18.948;2023-02-28T02:51:24;103134.38;;;1.05;55.36
24013;BME280;12220;50.194;18.948;2023-02-28T02:53:34;103141.54;;;1.04;55.43
24013;BME280;12220;50.194;18.948;2023-02-28T02:55:46;103144.21;;;1.01;55.41
24013;BME280;12220;50.194;18.948;2023-02-28T02:58:07;103138.80;;;0.98;55.47
24013;BME280;12220;50.194;18.948;2023-02-28T03:00:11;103152.28;;;0.97;55.50
24013;BME280;12220;50.194;18.948;2023-02-28T03:02:15;103148.68;;;0.95;55.53
24013;BME280;12220;50.194;18.948;2023-02-28T03:04:22;103148.62;;;0.92;55.59
24013;BME280;12220;50.194;18.948;2023-02-28T03:06:25;103147.73;;;0.91;55.60
24013;BME280;12220;50.194;18.948;2023-02-28T03:08:28;103149.52;;;0.88;55.64
24013;BME280;12220;50.194;18.948;2023-02-28T03:10:39;103154.84;;;0.83;55.79
24013;BME280;12220;50.194;18.948;2023-02-28T03:13:03;103151.24;;;0.81;55.72
24013;BME280;12220;50.194;18.948;2023-02-28T03:17:14;103161.05;;;0.74;55.82
24013;BME280;12220;50.194;18.948;2023-02-28T03:26:24;103151.04;;;0.61;55.95
24013;BME280;12220;50.194;18.948;2023-02-28T03:29:18;103154.60;;;0.58;56.01
24013;BME280;12220;50.194;18.948;2023-02-28T03:30:51;103150.09;;;0.54;56.06
24013;BME280;12220;50.194;18.948;2023-02-28T03:33:08;103157.25;;;0.54;56.08
24013;BME280;12220;50.194;18.948;2023-02-28T03:35:16;103176.98;;;0.49;56.12
24013;BME280;12220;50.194;18.948;2023-02-28T03:37:23;103159.03;;;0.50;56.24
24013;BME280;12220;50.194;18.948;2023-02-28T03:39:36;102829.00;;;-2.19;56.10
24013;BME280;12220;50.194;18.948;2023-02-28T03:42:03;103165.27;;;0.46;56.30
24013;BME280;12220;50.194;18.948;2023-02-28T03:44:15;103164.37;;;0.44;56.35
24013;BME280;12220;50.194;18.948;2023-02-28T03:46:21;103165.22;;;0.41;56.37
24013;BME280;12220;50.194;18.948;2023-02-28T03:50:38;103255.88;;;0.34;56.55
24013;BME280;12220;50.194;18.948;2023-02-28T03:52:47;103158.84;;;0.33;56.66
24013;BME280;12220;50.194;18.948;2023-02-28T03:54:56;103164.22;;;0.33;56.72
24013;BME280;12220;50.194;18.948;2023-02-28T03:59:45;103168.69;;;0.29;56.89
24013;BME280;12220;50.194;18.948;2023-02-28T04:04:22;103182.08;;;0.25;56.99
24013;BME280;12220;50.194;18.948;2023-02-28T04:06:26;103169.49;;;0.22;57.08
24013;BME280;12220;50.194;18.948;2023-02-28T04:08:28;103175.73;;;0.18;57.15
24013;BME280;12220;50.194;18.948;2023-02-28T04:10:29;103172.09;;;0.16;57.24
24013;BME280;12220;50.194;18.948;2023-02-28T04:12:32;103177.47;;;0.14;57.28
24013;BME280;12220;50.194;18.948;2023-02-28T04:14:34;103177.44;;;0.11;57.31
24013;BME280;12220;50.194;18.948;2023-02-28T04:16:37;103178.34;;;0.09;57.43
24013;BME280;12220;50.194;18.948;2023-02-28T04:18:39;103184.57;;;0.06;57.47
24013;BME280;12220;50.194;18.948;2023-02-28T04:20:47;103177.37;;;0.05;57.57
24013;BME280;12220;50.194;18.948;2023-02-28T04:22:49;103185.45;;;0.05;57.67
24013;BME280;12220;50.194;18.948;2023-02-28T04:24:50;103189.02;;;0.04;57.75
24013;BME280;12220;50.194;18.948;2023-02-28T04:26:55;103185.42;;;0.04;57.82
24013;BME280;12220;50.194;18.948;2023-02-28T04:29:04;103190.82;;;0.04;57.84
24013;BME280;12220;50.194;18.948;2023-02-28T04:31:06;103196.20;;;0.04;57.89
24013;BME280;12220;50.194;18.948;2023-02-28T04:33:08;103197.98;;;0.02;57.95
24013;BME280;12220;50.194;18.948;2023-02-28T04:35:11;103199.73;;;-0.01;57.98
24013;BME280;12220;50.194;18.948;2023-02-28T04:37:18;103193.43;;;-0.03;57.93
24013;BME280;12220;50.194;18.948;2023-02-28T04:39:20;103205.93;;;-0.06;57.95
24013;BME280;12220;50.194;18.948;2023-02-28T04:41:22;103205.02;;;-0.10;57.96
24013;BME280;12220;50.194;18.948;2023-02-28T04:43:24;103199.59;;;-0.13;58.01
24013;BME280;12220;50.194;18.948;2023-02-28T04:45:33;103203.13;;;-0.17;58.03
24013;BME280;12220;50.194;18.948;2023-02-28T04:47:36;103193.18;;;-0.21;58.12
24013;BME280;12220;50.194;18.948;2023-02-28T04:49:38;103202.13;;;-0.22;58.18
24013;BME280;12220;50.194;18.948;2023-02-28T04:51:39;103203.88;;;-0.26;58.23
24013;BME280;12220;50.194;18.948;2023-02-28T04:53:48;102868.38;;;-2.20;58.14
24013;BME280;12220;50.194;18.948;2023-02-28T04:55:50;103205.60;;;-0.31;58.32
24013;BME280;12220;50.194;18.948;2023-02-28T04:57:52;103204.66;;;-0.34;58.30
24013;BME280;12220;50.194;18.948;2023-02-28T04:59:53;103204.64;;;-0.36;58.37
24013;BME280;12220;50.194;18.948;2023-02-28T05:02:03;103199.20;;;-0.39;58.41
24013;BME280;12220;50.194;18.948;2023-02-28T05:04:08;103193.73;;;-0.44;58.47
24013;BME280;12220;50.194;18.948;2023-02-28T05:06:11;103200.00;;;-0.46;58.49
24013;BME280;12220;50.194;18.948;2023-02-28T05:08:13;103198.12;;;-0.52;58.58
24013;BME280;12220;50.194;18.948;2023-02-28T05:10:18;103198.96;;;-0.55;58.67
24013;BME280;12220;50.194;18.948;2023-02-28T05:12:20;103201.63;;;-0.56;58.70
24013;BME280;12220;50.194;18.948;2023-02-28T05:14:22;103200.72;;;-0.58;58.79
24013;BME280;12220;50.194;18.948;2023-02-28T05:16:23;103195.27;;;-0.60;58.90
24013;BME280;12220;50.194;18.948;2023-02-28T05:18:34;103197.98;;;-0.60;59.03
24013;BME280;12220;50.194;18.948;2023-02-28T05:20:35;103203.41;;;-0.58;59.15
24013;BME280;12220;50.194;18.948;2023-02-28T05:22:37;103200.72;;;-0.58;59.23
24013;BME280;12220;50.194;18.948;2023-02-28T05:24:39;103202.50;;;-0.57;59.28
24013;BME280;12220;50.194;18.948;2023-02-28T05:26:50;103206.13;;;-0.57;59.30
24013;BME280;12220;50.194;18.948;2023-02-28T05:28:53;103211.48;;;-0.58;59.29
24013;BME280;12220;50.194;18.948;2023-02-28T05:30:55;103217.73;;;-0.59;59.28
24013;BME280;12220;50.194;18.948;2023-02-28T05:32:56;103220.42;;;-0.59;59.39
24013;BME280;12220;50.194;18.948;2023-02-28T05:35:04;103220.42;;;-0.59;59.42
24013;BME280;12220;50.194;18.948;2023-02-28T05:37:11;103225.80;;;-0.61;59.48
24013;BME280;12220;50.194;18.948;2023-02-28T05:39:13;103224.00;;;-0.60;59.52
24013;BME280;12220;50.194;18.948;2023-02-28T05:41:16;103224.89;;;-0.60;59.56
24013;BME280;12220;50.194;18.948;2023-02-28T05:43:19;103224.94;;;-0.58;59.62
24013;BME280;12220;50.194;18.948;2023-02-28T05:45:21;103232.14;;;-0.56;59.72
24013;BME280;12220;50.194;18.948;2023-02-28T05:47:23;103232.14;;;-0.56;59.75
24013;BME280;12220;50.194;18.948;2023-02-28T05:49:24;103231.23;;;-0.56;59.74
24013;BME280;12220;50.194;18.948;2023-02-28T05:51:34;103232.12;;;-0.57;59.71
24013;BME280;12220;50.194;18.948;2023-02-28T05:53:40;103231.21;;;-0.58;59.73
24013;BME280;12220;50.194;18.948;2023-02-28T05:55:41;103233.01;;;-0.58;59.80
24013;BME280;12220;50.194;18.948;2023-02-28T05:57:43;103232.09;;;-0.59;59.81
24013;BME280;12220;50.194;18.948;2023-02-28T05:59:53;103240.14;;;-0.60;59.87
24013;BME280;12220;50.194;18.948;2023-02-28T06:02:00;103241.91;;;-0.62;59.91
24013;BME280;12220;50.194;18.948;2023-02-28T06:04:04;103240.99;;;-0.63;59.98
24013;BME280;12220;50.194;18.948;2023-02-28T06:06:06;103247.25;;;-0.65;60.05
24013;BME280;12220;50.194;18.948;2023-02-28T06:08:07;103246.35;;;-0.64;60.09
24013;BME280;12220;50.194;18.948;2023-02-28T06:10:11;103249.94;;;-0.65;60.15
24013;BME280;12220;50.194;18.948;2023-02-28T06:12:12;103254.42;;;-0.64;60.19
24013;BME280;12220;50.194;18.948;2023-02-28T06:16:47;103250.85;;;-0.63;60.31
24013;BME280;12220;50.194;18.948;2023-02-28T06:18:49;103260.76;;;-0.62;60.37
24013;BME280;12220;50.194;18.948;2023-02-28T06:20:55;103262.52;;;-0.63;60.37
24013;BME280;12220;50.194;18.948;2023-02-28T06:22:57;103259.85;;;-0.61;60.40
24013;BME280;12220;50.194;18.948;2023-02-28T06:25:02;103259.85;;;-0.61;60.44
24013;BME280;12220;50.194;18.948;2023-02-28T06:27:04;103262.55;;;-0.61;60.42
24013;BME280;12220;50.194;18.948;2023-02-28T06:29:06;103268.80;;;-0.64;60.44
24013;BME280;12220;50.194;18.948;2023-02-28T06:31:10;103273.27;;;-0.64;60.47
24013;BME280;12220;50.194;18.948;2023-02-28T06:33:12;103269.64;;;-0.66;60.54
24013;BME280;12220;50.194;18.948;2023-02-28T06:35:17;103270.52;;;-0.67;60.65
24013;BME280;12220;50.194;18.948;2023-02-28T06:37:18;103270.52;;;-0.67;60.73
24013;BME280;12220;50.194;18.948;2023-02-28T06:39:20;103270.55;;;-0.66;60.80
24013;BME280;12220;50.194;18.948;2023-02-28T06:41:25;103271.47;;;-0.65;60.86
24013;BME280;12220;50.194;18.948;2023-02-28T06:43:35;103271.47;;;-0.65;60.92
24013;BME280;12220;50.194;18.948;2023-02-28T06:45:36;103282.29;;;-0.62;60.99
24013;BME280;12220;50.194;18.948;2023-02-28T06:47:39;103280.49;;;-0.62;61.06
24013;BME280;12220;50.194;18.948;2023-02-28T06:49:41;103270.59;;;-0.63;61.13
24013;BME280;12220;50.194;18.948;2023-02-28T06:51:47;103271.52;;;-0.62;61.16
24013;BME280;12220;50.194;18.948;2023-02-28T06:53:49;103271.52;;;-0.62;61.25
24013;BME280;12220;50.194;18.948;2023-02-28T06:55:50;103272.41;;;-0.62;61.30
24013;BME280;12220;50.194;18.948;2023-02-28T06:57:52;103281.38;;;-0.61;61.41
24013;BME280;12220;50.194;18.948;2023-02-28T07:00:06;103281.47;;;-0.58;61.51
24013;BME280;12220;50.194;18.948;2023-02-28T07:02:10;103287.77;;;-0.56;61.59
24013;BME280;12220;50.194;18.948;2023-02-28T07:04:12;103294.07;;;-0.54;61.69
24013;BME280;12220;50.194;18.948;2023-02-28T07:06:14;103292.34;;;-0.52;61.74
24013;BME280;12220;50.194;18.948;2023-02-28T07:08:18;103292.37;;;-0.49;61.76
24013;BME280;12220;50.194;18.948;2023-02-28T07:10:21;103295.98;;;-0.47;61.77
24013;BME280;12220;50.194;18.948;2023-02-28T07:12:23;103296.01;;;-0.45;61.86
24013;BME280;12220;50.194;18.948;2023-02-28T07:14:24;103301.41;;;-0.44;61.87
24013;BME280;12220;50.194;18.948;2023-02-28T07:16:33;103300.57;;;-0.41;61.94
24013;BME280;12220;50.194;18.948;2023-02-28T07:18:37;103295.22;;;-0.40;61.97
24013;BME280;12220;50.194;18.948;2023-02-28T07:20:38;103297.95;;;-0.37;61.94
24013;BME280;12220;50.194;18.948;2023-02-28T07:22:43;103300.66;;;-0.35;61.96
24013;BME280;12220;50.194;18.948;2023-02-28T07:24:48;103303.42;;;-0.33;61.94
24013;BME280;12220;50.194;18.948;2023-02-28T07:26:49;103298.95;;;-0.31;62.03
24013;BME280;12220;50.194;18.948;2023-02-28T07:28:51;103307.96;;;-0.28;62.04
24013;BME280;12220;50.194;18.948;2023-02-28T07:30:53;103298.13;;;-0.26;62.01
24013;BME280;12220;50.194;18.948;2023-02-28T07:33:05;103303.55;;;-0.24;62.01
24013;BME280;12220;50.194;18.948;2023-02-28T07:35:07;103299.11;;;-0.21;62.02
24013;BME280;12220;50.194;18.948;2023-02-28T07:39:28;103291.16;;;-0.13;61.97
24013;BME280;12220;50.194;18.948;2023-02-28T07:41:30;103293.92;;;-0.08;61.92
24013;BME280;12220;50.194;18.948;2023-02-28T07:43:41;103302.05;;;-0.05;61.87
24013;BME280;12220;50.194;18.948;2023-02-28T07:45:43;103299.35;;;-0.05;61.76
24013;BME280;12220;50.194;18.948;2023-02-28T07:47:45;103296.66;;;-0.05;61.74
24013;BME280;12220;50.194;18.948;2023-02-28T07:49:47;103302.08;;;-0.04;61.72
24013;BME280;12220;50.194;18.948;2023-02-28T07:51:57;103304.82;;;0.01;61.75
24013;BME280;12220;50.194;18.948;2023-02-28T07:53:59;103303.10;;;0.05;61.71
24013;BME280;12220;50.194;18.948;2023-02-28T07:58:36;103305.03;;;0.13;61.62
24013;BME280;12220;50.194;18.948;2023-02-28T08:00:37;103308.66;;;0.17;61.57
24013;BME280;12220;50.194;18.948;2023-02-28T08:02:46;103305.10;;;0.20;61.52
24013;BME280;12220;50.194;18.948;2023-02-28T08:04:48;103325.80;;;0.22;61.51
24013;BME280;12220;50.194;18.948;2023-02-28T08:06:50;103306.13;;;0.28;61.52
24013;BME280;12220;50.194;18.948;2023-02-28T08:08:54;103301.71;;;0.34;61.48
24013;BME280;12220;50.194;18.948;2023-02-28T08:11:04;103306.27;;;0.40;61.43
24013;BME280;12220;50.194;18.948;2023-02-28T08:18:18;103307.45;;;0.61;61.13
24013;BME280;12220;50.194;18.948;2023-02-28T08:25:40;103317.56;;;0.77;60.96
24013;BME280;12220;50.194;18.948;2023-02-28T08:27:51;103314.91;;;0.82;60.94
24013;BME280;12220;50.194;18.948;2023-02-28T08:29:53;103312.24;;;0.85;60.83
24013;BME280;12220;50.194;18.948;2023-02-28T08:32:00;103306.90;;;0.90;60.78
24013;BME280;12220;50.194;18.948;2023-02-28T08:34:08;103306.95;;;0.94;60.68
24013;BME280;12220;50.194;18.948;2023-02-28T08:36:12;103304.30;;;0.99;60.58
24013;BME280;12220;50.194;18.948;2023-02-28T08:38:13;103302.55;;;1.02;60.49
24013;BME280;12220;50.194;18.948;2023-02-28T08:40:17;103302.63;;;1.10;60.45
24013;BME280;12220;50.194;18.948;2023-02-28T08:42:25;103299.06;;;1.13;60.35
24013;BME280;12220;50.194;18.948;2023-02-28T08:44:27;103302.67;;;1.16;60.27
24013;BME280;12220;50.194;18.948;2023-02-28T08:46:29;103303.66;;;1.23;60.18
24013;BME280;12220;50.194;18.948;2023-02-28T08:51:02;103309.14;;;1.32;59.99
24013;BME280;12220;50.194;18.948;2023-02-28T08:53:04;103308.25;;;1.33;59.55
24013;BME280;12220;50.194;18.948;2023-02-28T08:55:06;103303.81;;;1.37;59.42
24013;BME280;12220;50.194;18.948;2023-02-28T08:57:07;103304.73;;;1.41;59.35
24013;BME280;12220;50.194;18.948;2023-02-28T08:59:10;103298.46;;;1.45;59.02
24013;BME280;12220;50.194;18.948;2023-02-28T09:01:17;103311.09;;;1.46;58.66
24013;BME280;12220;50.194;18.948;2023-02-28T09:03:20;103311.11;;;1.49;58.67
24013;BME280;12220;50.194;18.948;2023-02-28T09:05:21;103313.82;;;1.50;58.39
24013;BME280;12220;50.194;18.948;2023-02-28T09:07:25;103305.75;;;1.53;58.10
24013;BME280;12220;50.194;18.948;2023-02-28T09:09:27;103312.91;;;1.53;57.70
24013;BME280;12220;50.194;18.948;2023-02-28T09:11:28;103312.98;;;1.56;57.67
24013;BME280;12220;50.194;18.948;2023-02-28T09:13:30;103307.58;;;1.58;57.71
24013;BME280;12220;50.194;18.948;2023-02-28T09:15:40;103305.82;;;1.64;57.79
24013;BME280;12220;50.194;18.948;2023-02-28T09:17:42;103304.05;;;1.66;57.69
24013;BME280;12220;50.194;18.948;2023-02-28T09:19:47;103303.20;;;1.70;57.10
24013;BME280;12220;50.194;18.948;2023-02-28T09:21:49;103302.28;;;1.73;57.13
24013;BME280;12220;50.194;18.948;2023-02-28T09:23:55;103308.64;;;1.77;56.75
24013;BME280;12220;50.194;18.948;2023-02-28T09:25:57;103306.82;;;1.76;56.35
24013;BME280;12220;50.194;18.948;2023-02-28T09:30:30;103305.08;;;1.81;56.16
24013;BME280;12220;50.194;18.948;2023-02-28T09:32:37;103300.57;;;1.83;55.95
24013;BME280;12220;50.194;18.948;2023-02-28T09:34:42;103303.28;;;1.84;56.08
24013;BME280;12220;50.194;18.948;2023-02-28T09:36:46;103301.48;;;1.86;55.92
24013;BME280;12220;50.194;18.948;2023-02-28T09:41:30;103037.68;;;0.45;55.76
24013;BME280;12220;50.194;18.948;2023-02-28T09:53:31;103312.46;;;2.11;55.41
24013;BME280;12220;50.194;18.948;2023-02-28T09:57:56;103306.20;;;2.18;54.84
24013;BME280;12220;50.194;18.948;2023-02-28T10:02:23;103304.47;;;2.28;55.09
24013;BME280;12220;50.194;18.948;2023-02-28T10:09:41;103304.63;;;2.62;54.73
24013;BME280;12220;50.194;18.948;2023-02-28T10:11:44;103306.46;;;2.71;54.29
24013;BME280;12220;50.194;18.948;2023-02-28T10:13:56;103293.88;;;2.77;54.37
24013;BME280;12220;50.194;18.948;2023-02-28T10:16:18;103302.93;;;2.86;53.89
24013;BME280;12220;50.194;18.948;2023-02-28T10:18:41;103303.84;;;2.94;53.67
24013;BME280;12220;50.194;18.948;2023-02-28T10:20:54;103288.52;;;2.99;53.89
24013;BME280;12220;50.194;18.948;2023-02-28T10:23:03;103288.52;;;3.04;53.44
24013;BME280;12220;50.194;18.948;2023-02-28T10:27:31;103287.66;;;3.17;52.99
24013;BME280;12220;50.194;18.948;2023-02-28T10:29:33;103283.16;;;3.22;53.28
24013;BME280;12220;50.194;18.948;2023-02-28T10:31:38;103288.58;;;3.28;53.32
24013;BME280;12220;50.194;18.948;2023-02-28T10:36:18;103284.08;;;3.40;52.79
24013;BME280;12220;50.194;18.948;2023-02-28T10:38:27;103280.48;;;3.42;52.84
24013;BME280;12220;50.194;18.948;2023-02-28T10:40:35;103282.27;;;3.45;52.47
24013;BME280;12220;50.194;18.948;2023-02-28T10:45:11;103273.24;;;3.49;52.77
24013;BME280;12220;50.194;18.948;2023-02-28T10:47:17;103267.81;;;3.54;52.93
24013;BME280;12220;50.194;18.948;2023-02-28T10:49:27;103265.10;;;3.57;52.59
24013;BME280;12220;50.194;18.948;2023-02-28T10:51:37;103263.30;;;3.60;52.29
24013;BME280;12220;50.194;18.948;2023-02-28T10:53:51;103262.41;;;3.63;52.21
24013;BME280;12220;50.194;18.948;2023-02-28T10:56:03;103268.73;;;3.65;52.21
24013;BME280;12220;50.194;18.948;2023-02-28T11:12:53;103250.66;;;3.55;50.91
24013;BME280;12220;50.194;18.948;2023-02-28T11:14:51;103248.84;;;3.54;51.24
24013;BME280;12220;50.194;18.948;2023-02-28T11:19:29;103240.71;;;3.54;51.29
24013;BME280;12220;50.194;18.948;2023-02-28T11:28:46;103234.41;;;3.69;51.15
24013;BME280;12220;50.194;18.948;2023-02-28T11:38:00;103221.72;;;3.91;51.38
24013;BME280;12220;50.194;18.948;2023-02-28T11:49:30;103196.33;;;4.10;50.84
24013;BME280;12220;50.194;18.948;2023-02-28T11:54:23;103187.33;;;4.05;49.72
24013;BME280;12220;50.194;18.948;2023-02-28T11:56:24;103192.73;;;4.08;49.84
24013;BME280;12220;50.194;18.948;2023-02-28T11:58:45;103184.59;;;4.10;50.32
24013;BME280;12220;50.194;18.948;2023-02-28T12:01:13;103189.09;;;4.15;50.58
24013;BME280;12220;50.194;18.948;2023-02-28T12:05:48;103187.27;;;4.17;49.88
24013;BME280;12220;50.194;18.948;2023-02-28T12:16:55;103186.37;;;4.18;50.33
24013;BME280;12220;50.194;18.948;2023-02-28T12:28:25;103183.57;;;4.32;49.90
24013;BME280;12220;50.194;18.948;2023-02-28T12:33:08;103175.46;;;4.34;49.79
24013;BME280;12220;50.194;18.948;2023-02-28T12:37:56;103179.93;;;4.43;49.59
24013;BME280;12220;50.194;18.948;2023-02-28T13:12:35;103165.10;;;4.95;49.07
24013;BME280;12220;50.194;18.948;2023-02-28T13:20:13;103156.92;;;5.02;48.79
24013;BME280;12220;50.194;18.948;2023-02-28T13:27:37;103145.95;;;5.13;48.02
24013;BME280;12220;50.194;18.948;2023-02-28T13:32:39;103142.34;;;5.13;48.22
24013;BME280;12220;50.194;18.948;2023-02-28T13:47:19;103150.41;;;5.20;48.09
24013;BME280;12220;50.194;18.948;2023-02-28T13:49:27;103135.94;;;5.20;48.24
24013;BME280;12220;50.194;18.948;2023-02-28T13:51:41;103140.41;;;5.24;48.42
24013;BME280;12220;50.194;18.948;2023-02-28T13:53:57;103136.74;;;5.28;48.39
24013;BME280;12220;50.194;18.948;2023-02-28T14:05:47;103132.08;;;5.43;48.31
24013;BME280;12220;50.194;18.948;2023-02-28T14:08:22;103132.02;;;5.47;48.38
24013;BME280;12220;50.194;18.948;2023-02-28T14:20:42;103101.98;;;5.63;48.39
24013;BME280;12220;50.194;18.948;2023-02-28T14:27:29;103107.27;;;5.73;47.93
24013;BME280;12220;50.194;18.948;2023-02-28T14:34:36;103100.91;;;5.76;48.11
24013;BME280;12220;50.194;18.948;2023-02-28T14:39:12;103111.80;;;5.74;47.56
24013;BME280;12220;50.194;18.948;2023-02-28T14:46:04;103096.33;;;5.78;47.70
24013;BME280;12220;50.194;18.948;2023-02-28T14:48:10;103097.22;;;5.82;47.85
24013;BME280;12220;50.194;18.948;2023-02-28T14:50:18;103093.52;;;5.87;47.81
24013;BME280;12220;50.194;18.948;2023-02-28T14:52:36;103091.66;;;5.89;47.57
24013;BME280;12220;50.194;18.948;2023-02-28T14:54:59;103093.52;;;5.87;47.69
24013;BME280;12220;50.194;18.948;2023-02-28T14:59:33;103088.06;;;5.89;47.59
24013;BME280;12220;50.194;18.948;2023-02-28T15:01:25;103094.34;;;5.92;47.75
24013;BME280;12220;50.194;18.948;2023-02-28T15:05:37;103098.81;;;6.00;47.68
24013;BME280;12220;50.194;18.948;2023-02-28T15:07:39;103095.19;;;6.01;47.65
24013;BME280;12220;50.194;18.948;2023-02-28T15:09:42;103094.27;;;6.03;47.80
24013;BME280;12220;50.194;18.948;2023-02-28T15:11:48;103099.63;;;6.08;47.78
24013;BME280;12220;50.194;18.948;2023-02-28T15:13:54;103095.97;;;6.10;47.91
24013;BME280;12220;50.194;18.948;2023-02-28T15:16:04;103098.67;;;6.12;47.65
24013;BME280;12220;50.194;18.948;2023-02-28T15:18:39;103096.86;;;6.11;47.58
24013;BME280;12220;50.194;18.948;2023-02-28T15:20:19;103098.72;;;6.09;47.76